INFORMACIÓN METAR y TAF
METAR FOR LFST
ADDS - METARS form results

(0856 UTC 15 April 2021)
Data provider http://aviationweather.gov/metar/data/
 
METAR text: LFST 150830Z AUTO 03012KT CAVOK 07/M00 Q1027 NOSIG
Conditions at: LFST (STRASBOURG/ENTZH, FR) observed 0830 UTC 15 April 2021
Temperature: 7.0°C (45°F)
Dewpoint: 0.0°C (32°F) [RH = 61%]
Pressure (altimeter): 30.32 inches Hg (1027.0 mb)
Winds: from the NNE (30 degrees) at 14 MPH (12 knots; 6.2 m/s)
Visibility: 6 or more miles (10+ km)
Ceiling: ceiling and visibility are OK
Clouds: unknown
Weather: no significant weather observed at this time

METAR text: LFST 150800Z AUTO 03010KT CAVOK 06/00 Q1027 NOSIG
Conditions at: LFST (STRASBOURG/ENTZH, FR) observed 0800 UTC 15 April 2021
Temperature: 6.0°C (43°F)
Dewpoint: 0.0°C (32°F) [RH = 65%]
Pressure (altimeter): 30.32 inches Hg (1027.0 mb)
Winds: from the NNE (30 degrees) at 12 MPH (10 knots; 5.1 m/s)
Visibility: 6 or more miles (10+ km)
Ceiling: ceiling and visibility are OK
Clouds: unknown
Weather: no significant weather observed at this time

Forecast for: LFST (STRASBOURG/ENTZH, FR)
Text: TAF LFST 150500Z 1506/1606 02008KT 9999 SCT050
Forecast period: 0600 UTC 15 April 2021 to 0600 UTC 16 April 2021
Forecast type: FROM: standard forecast or significant change
Winds: from the NNE (20 degrees) at 9 MPH (8 knots; 4.1 m/s)
Visibility: 6 or more miles (10+ km)
Ceiling: at least 12,000 feet AGL
Clouds: scattered clouds at 5000 feet AGL
Weather: no significant weather forecast for this period
Text: PROB40
Forecast period: 1100 to 1900 UTC 15 April 2021
Forecast type: TEMPORARY: The following changes expected for less than half the time period
Winds: from the NNE (30 degrees) at 17 MPH (15 knots; 7.7 m/s)
gusting to 29 MPH (25 knots; 12.9 m/s)
Visibility: missing
Ceiling: at least 12,000 feet AGL
Clouds: few clouds at 5000 feet AGL
Weather: -SHRA  (light rain showers)

 MAPA DE AEROPUERTO

 INFORMACIÓN DE PISTA
Pista 05 Longitud 7874 ft Ancho 148 ft
Elevación 503 ft Umbral desplazado 0 ft Rumbo de pista 49
Pista 23 Longitud 7874 ft Ancho 148 ft
Elevación 491 ft Umbral desplazado 0 ft Rumbo de pista 229

 FRECUANCIAS DEL AEROPUERTO
Tipo APP Nombre STRASBOURG Frecuencia 119.45 MHZ
Tipo ATIS Nombre STRASBOURG Frecuencia 126.925 MHZ
Tipo GND Nombre STRASBOURG Frecuencia 121.8 MHZ
Tipo TWR Nombre STRASBOURG Frecuencia 126.875 MHZ

 RADIO AYUDAS DEL AEROPUERTO
Tipo VOR-DME Nombre Saverne Frecuencia 110450 KHZ
Tipo VOR-DME Nombre Strasbourg Frecuencia 115600 KHZ



Powered by Virtual Airlines Manager [v2.6.2]